Aérodrome :
LOGIN :

S'inscrire | Disclaimer

   EN    FR    IT 

 










Légende :    VFR   VFR Marginal   IFR   IFR Intensif   IFR Très Intensif
Visi : 
Plafond : 
>= 8 km
>= 3000ft
5 à 8 km
1000 à 3000 ft
1500m à 5 km
500 à 1000 ft
800 à 1500m
200 à 500 ft
< 800m
< 200 ft
Symboles :   Orages  Brouillard  Fortes neiges  Fortes précipitations  Vent > 20 kt
SIGMETs :   Divers  Orages  Givrage  Turbulence  Onde Orograph.  Cendres Volcan.







- Altitude de l'aérodrome : 233 ft
- Code IATA : REU


LERS - Reus Tarragona

DERNIER METAR :
  • 280630Z VRB01KT 9999 FEW025 SCT050 26/12 Q1006

METARs EXPIRÉS :
  • 280600Z 00000KT 9999 FEW025 25/13 Q1006
  • 280530Z 27005KT 230V300 9999 FEW025 24/13 Q1006
  • 280500Z 26006KT 210V300 9999 FEW025 24/12 Q1006
  • 280430Z AUTO 26006KT CAVOK 24/12 Q1006
  • 280400Z AUTO VRB02KT CAVOK 24/12 Q1006

TAF TAF LERS
Valide du 28 à 03h jusqu'au 29 à 03h UTC


280200Z 2803/2903 VRB04KT 9999 SCT030 TX33/2813Z TN20/2805Z
BECMG 2804/2806 27010KT
BECMG 2812/2814 20012KT
TEMPO 2812/2818 24018G28KT
PROB40
TEMPO 2814/2820 3000 TSRA BKN015 FEW050CB
Pas de NOTAMs connus pour ce terrain.
2 SIGMETs publiés pour la FIR Barcelona (LECB) :
 
Orages noyés dans la masse
LECB SIGMET 3 VALID 280651/280800 LEVA
LECB BARCELONA FIR/UIR EMBD TS OBS AT 0651Z WI N4030 E00040 - N4020 E00150 - N4110 E00330 - N4140 E00230 TOP FL380 MOV NE NC=
Orages noyés dans la masse
LECB SIGMET 2 VALID 280540/280800 LEVA
LECB BARCELONA FIR/UIR EMBD TS OBS AT 0540Z N OF LINE N4130 E00230 - N4120 E00420 TOP FL380 MOV NE NC=



MET'MAP, la Météo Aéronautique d'un coup d'oeil ! - Copyright ORBIFLY Décembre 2007 - Disclaimer

ORBIFLY MET'MAP TEAM :

Programmation & Développement : Alexandra Zaïnal
Conception & Développement : Baudouin d'Aumeries
Co-Programmation & Développement : Marc-Olivier Méhu
Soutien technique & logistique : Manuel Goepfert

Contact : metmap@orbifly.com




SOURCES & CREDITS :

   NOAA